Time;durP1;ratioP1;P1;durP2;ratioP2;P2;SDS_P1;SDS_P2;PMS_P1;PMS_P2;Temp;Humidity;BMP_temperature;BMP_pressure;BME280_temperature;BME280_humidity;BME280_pressure;Samples;Min_cycle;Max_cycle;Signal;HPM_P1;HPM_P2
2021/12/14 00:01:45;;;;;;;1.15;1.00;;;;;;;18.63;42.73;102437.00;4165170;28;20566;-47
2021/12/14 00:03:51;;;;;;;1.35;0.90;;;;;;;18.62;42.75;102427.81;4165039;28;20072;-46
2021/12/14 00:05:54;;;;;;;1.00;0.88;;;;;;;18.64;42.22;102431.19;4164619;28;20064;-47
2021/12/14 00:07:57;;;;;;;2.05;0.80;;;;;;;18.63;42.64;102437.84;4164529;28;20090;-45
2021/12/14 00:10:12;;;;;;;1.13;0.82;;;;;;;18.64;42.65;102435.91;4164960;28;20029;-44
2021/12/14 00:12:40;;;;;;;0.90;0.70;;;;;;;18.52;42.60;102425.59;4165076;28;20504;-45
2021/12/14 00:16:48;;;;;;;;;;;;;;;18.62;42.29;102433.38;4165451;28;20091;-46
2021/12/14 00:18:50;;;;;;;1.20;0.60;;;;;;;18.68;42.30;102426.91;4165075;28;19943;-46
2021/12/14 00:21:21;;;;;;;1.42;0.90;;;;;;;18.63;42.23;102420.34;4164742;28;20551;-44
2021/12/14 00:25:53;;;;;;;1.20;0.68;;;;;;;18.65;42.22;102432.06;4166347;28;20079;-45
2021/12/14 00:27:57;;;;;;;2.78;0.80;;;;;;;18.64;42.27;102433.97;4172399;28;20036;-46
2021/12/14 00:30:05;;;;;;;1.35;0.82;;;;;;;18.63;42.59;102434.22;4179902;28;20033;-44
2021/12/14 00:32:19;;;;;;;1.70;0.70;;;;;;;18.63;42.24;102434.22;4180109;28;20025;-46
2021/12/14 00:34:34;;;;;;;0.85;0.77;;;;;;;18.63;42.42;102432.28;4173310;28;20033;-48
2021/12/14 00:36:37;;;;;;;;;;;;;;;18.62;42.41;102440.84;4179134;28;20099;-47
2021/12/14 00:38:41;;;;;;;1.10;0.70;;;;;;;18.67;42.26;102436.31;4179045;28;20002;-47
2021/12/14 00:40:48;;;;;;;1.23;0.80;;;;;;;18.62;42.12;102433.38;4178737;28;20055;-45
2021/12/14 00:42:51;;;;;;;1.33;1.00;;;;;;;18.65;42.43;102440.41;4179783;28;20098;-43
2021/12/14 00:44:52;;;;;;;1.20;0.80;;;;;;;18.62;42.07;102441.69;4180999;28;20037;-45
2021/12/14 00:46:54;;;;;;;1.30;1.00;;;;;;;18.60;42.33;102449.41;4179884;28;20024;-47
2021/12/14 00:48:56;;;;;;;1.10;0.80;;;;;;;18.59;42.15;102444.91;4180106;28;20049;-48
2021/12/14 00:51:00;;;;;;;0.88;0.73;;;;;;;18.56;42.06;102448.16;4179944;28;20037;-45
2021/12/14 00:53:03;;;;;;;1.27;0.98;;;;;;;18.58;42.33;102439.59;4179746;28;20094;-44
2021/12/14 00:55:10;;;;;;;1.13;0.70;;;;;;;18.58;42.08;102443.22;4177639;28;20558;-46
2021/12/14 00:57:12;;;;;;;1.30;0.68;;;;;;;18.51;42.41;102434.97;4179932;28;20411;-45
2021/12/14 00:59:15;;;;;;;1.10;0.70;;;;;;;18.56;42.19;102442.63;4179797;28;20562;-50
2021/12/14 01:01:24;;;;;;;1.00;0.70;;;;;;;18.54;42.51;102442.81;4179360;28;20465;-45
2021/12/14 01:03:29;;;;;;;1.17;0.93;;;;;;;18.56;42.47;102442.63;4177699;28;20102;-45
2021/12/14 01:05:35;;;;;;;1.35;0.98;;;;;;;18.57;42.22;102449.84;4179982;28;20059;-44
2021/12/14 01:07:37;;;;;;;1.92;1.10;;;;;;;18.57;42.43;102444.31;4179171;28;20041;-46
2021/12/14 01:09:43;;;;;;;2.05;0.95;;;;;;;18.57;42.30;102444.31;4179941;28;20098;-45
2021/12/14 01:11:47;;;;;;;2.28;0.85;;;;;;;18.56;41.95;102453.69;4180628;28;20431;-45
2021/12/14 01:14:06;;;;;;;1.17;0.90;;;;;;;18.49;42.34;102437.13;4179635;28;20491;-47
2021/12/14 01:16:29;;;;;;;1.60;0.88;;;;;;;18.54;41.98;102441.97;4167493;28;20098;-46
2021/12/14 01:20:43;;;;;;;1.73;0.77;;;;;;;18.54;42.39;102445.59;4180096;28;20074;-44
2021/12/14 01:22:47;;;;;;;0.60;0.60;;;;;;;18.55;42.00;102451.97;4171187;28;20094;-46
2021/12/14 01:27:00;;;;;;;1.17;1.00;;;;;;;18.50;42.37;102441.59;4180309;28;20025;-46
2021/12/14 01:29:05;;;;;;;1.08;0.90;;;;;;;18.53;42.39;102451.38;4180294;28;20545;-47
2021/12/14 01:31:27;;;;;;;1.58;0.95;;;;;;;18.51;42.47;102446.06;4178313;28;20110;-45
2021/12/14 01:33:30;;;;;;;1.27;0.75;;;;;;;18.52;42.40;102444.16;4180174;28;20067;-44
2021/12/14 01:35:36;;;;;;;1.00;0.82;;;;;;;18.52;42.01;102444.16;4180003;28;20099;-46
2021/12/14 01:37:45;;;;;;;1.48;0.80;;;;;;;18.53;42.31;102445.84;4179470;28;20095;-48
2021/12/14 01:40:06;;;;;;;3.70;1.13;;;;;;;18.52;42.01;102445.00;4179622;28;20075;-45
2021/12/14 01:42:31;;;;;;;1.83;1.20;;;;;;;18.52;41.95;102446.91;4178882;28;20438;-44
2021/12/14 01:44:44;;;;;;;1.45;1.10;;;;;;;18.52;42.55;102446.91;4179601;28;20045;-44
2021/12/14 01:46:52;;;;;;;1.23;0.98;;;;;;;18.51;42.43;102446.06;4179384;28;20059;-44
2021/12/14 01:48:54;;;;;;;1.45;0.95;;;;;;;18.52;42.40;102455.22;4181819;28;20041;-46
2021/12/14 01:51:01;;;;;;;1.23;0.98;;;;;;;18.50;42.12;102460.97;4183028;28;20045;-44
2021/12/14 01:53:03;;;;;;;1.13;0.88;;;;;;;18.50;42.52;102460.13;4182342;28;20029;-43
2021/12/14 01:55:12;;;;;;;1.98;1.20;;;;;;;18.48;42.35;102457.59;4181401;28;20523;-43
2021/12/14 01:57:16;;;;;;;1.90;0.90;;;;;;;18.49;42.10;102458.44;4182274;28;20063;-45
2021/12/14 01:59:27;;;;;;;1.70;0.90;;;;;;;18.49;42.43;102452.91;4182543;28;20045;-45
2021/12/14 02:01:37;;;;;;;2.25;1.20;;;;;;;18.49;42.44;102458.44;4169825;28;20040;-53
2021/12/14 02:04:03;;;;;;;2.28;1.20;;;;;;;18.45;42.13;102458.06;4181758;28;20041;-46
2021/12/14 02:06:05;;;;;;;2.00;1.40;;;;;;;18.47;42.25;102457.84;4181938;28;20045;-48
2021/12/14 02:08:25;;;;;;;1.83;1.45;;;;;;;18.46;42.38;102459.78;4182260;28;20036;-50
2021/12/14 02:10:32;;;;;;;3.08;1.73;;;;;;;18.47;42.34;102460.63;4182084;28;20041;-45
2021/12/14 02:12:34;;;;;;;3.30;2.20;;;;;;;18.48;42.47;102457.59;4182872;28;20091;-50
2021/12/14 02:14:35;;;;;;;6.05;2.58;;;;;;;18.47;42.57;102463.38;4179453;28;20041;-46
2021/12/14 02:16:37;;;;;;;4.38;2.17;;;;;;;18.46;42.23;102457.00;4177135;28;20091;-44
2021/12/14 02:18:47;;;;;;;6.93;3.30;;;;;;;18.40;42.46;102466.22;4172613;28;20469;-43
2021/12/14 02:20:57;;;;;;;5.18;3.20;;;;;;;18.47;42.59;102468.94;4166439;28;20138;-45
2021/12/14 02:23:00;;;;;;;7.05;3.88;;;;;;;18.46;42.46;102469.97;4166059;28;20119;-46
2021/12/14 02:25:03;;;;;;;5.05;3.85;;;;;;;18.46;42.75;102472.75;4177924;28;20036;-44
2021/12/14 02:27:05;;;;;;;7.13;3.95;;;;;;;18.44;42.75;102467.44;4178531;28;20762;-45
2021/12/14 02:29:09;;;;;;;12.35;4.88;;;;;;;18.44;42.55;102467.44;4166357;28;20092;-48
2021/12/14 02:31:14;;;;;;;7.05;4.32;;;;;;;18.45;42.61;102468.28;4169299;28;20075;-43
2021/12/14 02:33:21;;;;;;;8.63;4.88;;;;;;;18.44;42.54;102472.16;4167486;28;20076;-45
2021/12/14 02:35:27;;;;;;;9.02;5.70;;;;;;;18.43;42.92;102478.78;4173636;28;20045;-47
2021/12/14 02:37:40;;;;;;;9.95;5.65;;;;;;;18.44;42.83;102484.09;4177227;28;20354;-46
2021/12/14 02:41:49;;;;;;;9.13;5.63;;;;;;;18.45;43.02;102485.78;4167388;28;20084;-47
2021/12/14 02:43:56;;;;;;;11.13;6.30;;;;;;;18.43;42.81;102482.38;4165603;28;20045;-45
2021/12/14 02:46:04;;;;;;;12.07;7.43;;;;;;;18.45;42.80;102490.47;4170217;28;20038;-44
2021/12/14 02:48:08;;;;;;;12.05;6.35;;;;;;;18.21;42.57;102456.16;4181364;28;20033;-48
2021/12/14 02:50:11;;;;;;;10.93;6.50;;;;;;;18.44;42.71;102494.31;4179913;28;20094;-46
2021/12/14 02:52:24;;;;;;;14.63;7.68;;;;;;;18.41;43.06;102495.59;4166216;28;20046;-47
2021/12/14 02:54:33;;;;;;;10.10;6.53;;;;;;;18.44;42.75;102506.25;4165533;28;20068;-46
2021/12/14 02:56:37;;;;;;;21.33;7.80;;;;;;;18.46;43.03;102503.25;4166096;28;20079;-46
2021/12/14 02:58:38;;;;;;;13.85;7.68;;;;;;;18.45;43.04;102501.56;4164923;28;20485;-47
2021/12/14 03:00:50;;;;;;;12.90;7.78;;;;;;;18.44;43.19;102500.72;4165409;28;20546;-45
2021/12/14 03:02:53;;;;;;;15.05;8.38;;;;;;;18.43;43.27;102499.03;4177302;28;20365;-46
2021/12/14 03:05:03;;;;;;;12.57;7.53;;;;;;;18.42;43.12;102499.25;4169734;28;20041;-49
2021/12/14 03:07:08;;;;;;;12.88;8.15;;;;;;;18.44;43.36;102499.88;4179754;28;20054;-49
2021/12/14 03:09:20;;;;;;;13.60;8.05;;;;;;;18.43;43.47;102499.03;4165086;28;20274;-43
2021/12/14 03:11:23;;;;;;;11.65;8.18;;;;;;;18.43;43.35;102492.63;4165812;28;20033;-45
2021/12/14 03:13:30;;;;;;;16.63;8.38;;;;;;;18.43;43.15;102503.72;4180032;28;20079;-46
2021/12/14 03:15:46;;;;;;;15.07;9.25;;;;;;;18.43;43.46;102506.50;4181456;28;20063;-46
2021/12/14 03:17:58;;;;;;;14.77;8.93;;;;;;;18.42;43.19;102502.88;4175273;28;20045;-47
2021/12/14 03:20:06;;;;;;;14.40;8.88;;;;;;;18.41;43.18;102503.09;4165421;28;20100;-46
2021/12/14 03:22:23;;;;;;;15.20;8.57;;;;;;;18.42;43.55;102516.72;4165861;28;20072;-44
2021/12/14 03:24:25;;;;;;;16.27;9.40;;;;;;;18.43;43.31;102507.34;4165683;28;20037;-48
2021/12/14 03:26:30;;;;;;;18.05;9.30;;;;;;;18.41;43.72;102503.09;4165422;28;20095;-44
2021/12/14 03:28:32;;;;;;;18.15;10.18;;;;;;;18.41;43.66;102501.16;4165004;28;20095;-45
2021/12/14 03:30:50;;;;;;;15.40;9.48;;;;;;;18.39;43.75;102514.41;4176409;28;20033;-45
2021/12/14 03:32:57;;;;;;;17.55;9.60;;;;;;;18.41;43.83;102528.88;4181583;28;20553;-43
2021/12/14 03:34:59;;;;;;;17.10;9.20;;;;;;;18.38;44.36;102523.81;4182110;28;20037;-48
2021/12/14 03:37:08;;;;;;;16.00;9.13;;;;;;;18.41;44.56;102525.25;4181841;28;20403;-46
2021/12/14 03:39:19;;;;;;;17.48;9.90;;;;;;;18.40;45.01;102515.25;4182113;28;20036;-46
2021/12/14 03:41:30;;;;;;;18.10;9.90;;;;;;;18.41;45.49;102528.03;4181227;28;20066;-43
2021/12/14 03:43:37;;;;;;;17.45;9.75;;;;;;;18.36;46.06;102509.31;4169621;28;20044;-47
2021/12/14 03:45:39;;;;;;;17.20;10.52;;;;;;;18.40;46.56;102520.78;4168959;28;20033;-44
2021/12/14 03:47:52;;;;;;;17.83;10.15;;;;;;;18.39;46.66;102519.94;4182100;28;20455;-45
2021/12/14 03:50:00;;;;;;;19.10;10.27;;;;;;;18.42;46.46;102521.44;4166855;28;20391;-46
2021/12/14 03:52:07;;;;;;;17.02;10.63;;;;;;;18.43;46.91;102520.34;4163318;28;20042;-45
2021/12/14 03:54:15;;;;;;;22.15;10.85;;;;;;;18.43;47.01;102521.19;4165150;28;20084;-46
2021/12/14 03:56:18;;;;;;;18.65;10.35;;;;;;;18.43;47.46;102520.34;4164940;28;20045;-47
2021/12/14 03:58:34;;;;;;;17.65;10.55;;;;;;;18.22;47.55;102491.94;4164434;28;20095;-44
2021/12/14 04:00:41;;;;;;;18.83;10.60;;;;;;;18.44;47.26;102527.59;4170370;28;20103;-47
2021/12/14 04:02:43;;;;;;;18.98;10.45;;;;;;;18.44;47.22;102533.13;4177984;28;20110;-45
2021/12/14 04:05:00;;;;;;;17.60;10.07;;;;;;;18.39;47.58;102527.41;4177617;28;20542;-45
2021/12/14 04:07:05;;;;;;;17.35;9.93;;;;;;;18.45;47.85;102540.38;4164584;28;20436;-47
2021/12/14 04:09:10;;;;;;;20.50;9.98;;;;;;;18.41;47.81;102533.56;4164428;28;20124;-44
2021/12/14 04:11:13;;;;;;;17.30;10.20;;;;;;;18.45;47.54;102548.69;4164679;28;20057;-45
2021/12/14 04:13:18;;;;;;;17.30;10.35;;;;;;;18.44;47.64;102544.22;4164760;28;20041;-44
2021/12/14 04:15:20;;;;;;;16.95;10.50;;;;;;;18.43;47.48;102548.06;4165236;28;20103;-48
2021/12/14 04:17:28;;;;;;;21.10;12.02;;;;;;;18.43;47.54;102554.47;4164432;28;20045;-43
2021/12/14 04:19:35;;;;;;;17.00;10.13;;;;;;;18.44;48.02;102552.53;4164390;28;20053;-46
2021/12/14 04:21:40;;;;;;;19.02;10.30;;;;;;;18.43;47.86;102554.47;4163876;28;20554;-46
2021/12/14 04:23:47;;;;;;;19.40;10.02;;;;;;;18.41;47.59;102552.97;4164075;28;20037;-45
2021/12/14 04:25:51;;;;;;;18.13;10.05;;;;;;;18.42;47.82;102552.78;4164281;28;20045;-44
2021/12/14 04:27:54;;;;;;;18.48;10.35;;;;;;;18.35;47.64;102540.88;4164251;28;20088;-46
2021/12/14 04:29:56;;;;;;;17.17;9.90;;;;;;;18.35;47.63;102538.09;4164841;28;20100;-45
2021/12/14 04:31:58;;;;;;;16.05;9.57;;;;;;;18.35;47.65;102542.78;4164819;28;20481;-45
2021/12/14 04:34:03;;;;;;;17.63;10.52;;;;;;;18.41;47.59;102545.50;4164792;28;20037;-46
2021/12/14 04:36:08;;;;;;;16.55;10.48;;;;;;;18.40;47.63;102554.06;4164133;28;20103;-44
2021/12/14 04:38:18;;;;;;;15.98;9.70;;;;;;;18.38;47.65;102543.19;4175971;28;20431;-44
2021/12/14 04:52:24;;;;;;;17.45;10.02;;;;;;;18.42;47.51;102552.78;4181698;28;20083;-44
2021/12/14 04:54:32;;;;;;;16.52;9.65;;;;;;;18.41;47.43;102541.88;4181502;28;20025;-44
2021/12/14 04:56:40;;;;;;;16.92;9.98;;;;;;;18.40;47.17;102546.59;4180644;28;20090;-45
2021/12/14 04:58:48;;;;;;;15.10;8.93;;;;;;;18.40;47.15;102543.81;4180560;28;20045;-44
2021/12/14 05:00:50;;;;;;;17.35;9.68;;;;;;;18.39;47.31;102546.81;4180812;28;20037;-45
2021/12/14 05:02:56;;;;;;;15.63;9.90;;;;;;;18.40;47.07;102554.06;4180881;28;20044;-47
2021/12/14 05:04:59;;;;;;;15.13;9.30;;;;;;;18.33;47.37;102543.03;4181129;28;20431;-43
2021/12/14 05:07:26;;;;;;;15.95;9.50;;;;;;;18.39;47.33;102546.81;4180877;28;20087;-44
2021/12/14 05:09:29;;;;;;;16.05;10.48;;;;;;;18.37;47.11;102543.41;4181015;28;20041;-44
2021/12/14 05:11:31;;;;;;;16.65;9.93;;;;;;;18.34;47.27;102533.63;4178761;28;20090;-46
2021/12/14 05:13:37;;;;;;;17.40;8.82;;;;;;;18.36;47.25;102548.09;4181151;28;20091;-45
2021/12/14 05:15:41;;;;;;;17.10;9.98;;;;;;;18.38;47.37;102550.66;4166784;28;20374;-44
2021/12/14 05:17:45;;;;;;;14.80;9.45;;;;;;;18.37;47.12;102537.88;4178678;28;20106;-45
2021/12/14 05:19:49;;;;;;;17.25;9.30;;;;;;;18.37;47.23;102548.94;4176975;28;20041;-46
2021/12/14 05:21:52;;;;;;;18.70;10.57;;;;;;;18.37;47.28;102548.94;4180048;28;20025;-42
2021/12/14 05:23:53;;;;;;;15.30;9.77;;;;;;;18.37;47.14;102543.41;4179097;28;20071;-43
2021/12/14 05:25:56;;;;;;;13.07;8.60;;;;;;;18.32;47.02;102546.84;4177490;28;20136;-44
2021/12/14 05:28:00;;;;;;;14.60;9.35;;;;;;;18.32;46.77;102552.41;4171085;28;20102;-43
2021/12/14 05:30:17;;;;;;;14.10;8.85;;;;;;;18.31;46.91;102544.31;4183835;28;20098;-45
2021/12/14 05:32:19;;;;;;;16.38;10.00;;;;;;;18.33;46.76;102554.13;4172395;28;20041;-43
2021/12/14 05:34:23;;;;;;;13.88;9.48;;;;;;;18.34;46.88;102557.72;4167325;28;20029;-44
2021/12/14 05:36:26;;;;;;;15.93;8.93;;;;;;;18.34;46.74;102560.50;4170078;28;20098;-48
2021/12/14 05:43:07;;;;;;;11.80;8.32;;;;;;;18.32;46.90;102573.72;4178189;28;20033;-43
2021/12/14 05:45:14;;;;;;;13.52;8.23;;;;;;;18.32;46.76;102569.03;4183038;28;20037;-44
2021/12/14 05:47:18;;;;;;;14.35;9.23;;;;;;;18.31;47.05;102566.47;4168267;28;20037;-43
2021/12/14 05:49:25;;;;;;;13.68;8.55;;;;;;;18.23;46.81;102562.91;4167138;28;20041;-44
2021/12/14 05:51:29;;;;;;;13.57;8.77;;;;;;;18.32;46.60;102573.72;4179604;28;20059;-44
2021/12/14 05:53:38;;;;;;;12.35;8.65;;;;;;;18.28;46.96;102568.66;4169693;28;20492;-44
2021/12/14 05:55:41;;;;;;;15.90;9.02;;;;;;;18.31;46.85;102577.56;4181047;28;20112;-45
2021/12/14 05:57:45;;;;;;;12.18;8.48;;;;;;;18.28;46.72;102582.50;4168483;28;20083;-44
2021/12/14 05:59:47;;;;;;;12.85;8.27;;;;;;;18.27;46.97;102572.47;4168530;28;20488;-43
2021/12/14 06:01:50;;;;;;;15.10;8.80;;;;;;;18.28;47.00;102565.88;4170306;28;20040;-45
2021/12/14 06:04:01;;;;;;;13.05;8.43;;;;;;;18.27;46.84;102571.63;4183396;28;20051;-44
2021/12/14 06:06:03;;;;;;;13.63;8.57;;;;;;;18.22;46.90;102558.44;4182397;28;20049;-45
2021/12/14 06:08:05;;;;;;;11.98;7.78;;;;;;;18.20;46.90;102559.75;4181958;28;20078;-44
2021/12/14 06:10:10;;;;;;;14.65;9.13;;;;;;;18.25;46.79;102569.09;4182394;28;20439;-44
2021/12/14 06:12:17;;;;;;;15.50;9.65;;;;;;;18.26;46.71;102565.22;4177049;28;20041;-43
2021/12/14 06:14:22;;;;;;;15.20;8.02;;;;;;;18.24;46.75;102572.09;4169992;28;20107;-44
2021/12/14 06:16:29;;;;;;;12.32;7.70;;;;;;;18.23;46.79;102571.22;4175229;28;20041;-45
2021/12/14 06:18:30;;;;;;;13.82;8.32;;;;;;;18.20;46.59;102563.38;4182675;28;20037;-45
2021/12/14 06:20:32;;;;;;;13.90;8.32;;;;;;;18.21;46.91;102567.81;4172783;28;20092;-44
2021/12/14 06:22:35;;;;;;;15.40;8.45;;;;;;;18.15;46.60;102563.19;4166667;28;20037;-45
2021/12/14 06:24:41;;;;;;;13.50;8.70;;;;;;;18.22;46.60;102582.53;4165763;28;20440;-43
2021/12/14 06:26:48;;;;;;;13.85;7.93;;;;;;;18.22;46.58;102569.53;4166550;28;20384;-43
2021/12/14 06:28:49;;;;;;;12.93;7.50;;;;;;;18.20;46.59;102565.28;4166103;28;20034;-45
2021/12/14 06:30:51;;;;;;;11.90;7.80;;;;;;;18.21;46.69;102567.81;4166425;28;20147;-46
2021/12/14 06:32:57;;;;;;;13.75;8.30;;;;;;;18.20;46.51;102580.00;4176906;28;20037;-44
2021/12/14 06:35:03;;;;;;;11.77;7.38;;;;;;;18.20;46.77;102577.22;4177657;28;20045;-46
2021/12/14 06:40:04;;;;;;;15.93;7.95;;;;;;;18.17;46.66;102594.28;4166695;28;20026;-44
2021/12/14 06:42:07;;;;;;;12.48;7.53;;;;;;;18.20;46.38;102587.47;4165746;28;20546;-45
2021/12/14 06:44:08;;;;;;;13.85;8.48;;;;;;;18.16;46.68;102589.81;4175522;28;20029;-46
2021/12/14 06:46:15;;;;;;;12.05;7.22;;;;;;;18.18;46.78;102595.97;4178385;28;20099;-47
2021/12/14 06:48:21;;;;;;;13.40;7.88;;;;;;;18.18;46.68;102595.97;4178968;28;20071;-44
2021/12/14 06:50:29;;;;;;;13.70;7.90;;;;;;;18.17;46.31;102605.38;4176617;28;20041;-44
2021/12/14 06:52:31;;;;;;;11.82;7.35;;;;;;;18.15;46.73;102604.75;4165496;28;20042;-44
2021/12/14 06:54:33;;;;;;;11.07;7.20;;;;;;;18.14;46.67;102593.88;4168823;28;20055;-45
2021/12/14 06:56:35;;;;;;;12.32;7.55;;;;;;;18.17;46.63;102605.38;4180833;28;20079;-45
2021/12/14 06:58:47;;;;;;;11.02;6.95;;;;;;;18.17;46.28;102618.38;4181394;28;20093;-44
2021/12/14 07:01:13;;;;;;;10.70;7.47;;;;;;;18.15;46.47;102618.59;4182371;28;20033;-42
2021/12/14 07:03:15;;;;;;;;;;;;;;;18.14;46.59;102622.41;4182738;28;20448;-45
2021/12/14 07:05:22;;;;;;;12.32;7.55;;;;;;;18.19;46.29;102630.94;4181785;28;19928;-43
2021/12/14 07:07:26;;;;;;;11.10;7.68;;;;;;;18.18;46.30;102634.75;4181719;28;20033;-45
2021/12/14 07:09:39;;;;;;;11.70;7.22;;;;;;;18.17;46.45;102632.22;4172712;28;20087;-43
2021/12/14 07:11:45;;;;;;;9.93;6.90;;;;;;;18.15;46.30;102635.22;4166830;28;20045;-43
2021/12/14 07:13:48;;;;;;;11.23;6.57;;;;;;;18.17;46.28;102637.75;4177683;28;20102;-44
2021/12/14 07:15:51;;;;;;;11.98;7.15;;;;;;;18.16;46.23;102644.38;4165485;28;20037;-45
2021/12/14 07:18:03;;;;;;;10.45;7.38;;;;;;;18.13;46.52;102645.66;4164893;28;20419;-45
2021/12/14 07:20:22;;;;;;;10.82;6.45;;;;;;;18.12;46.52;102645.91;4181771;28;20123;-46
2021/12/14 07:22:30;;;;;;;9.82;6.72;;;;;;;18.12;46.46;102646.75;4177422;28;20103;-44
2021/12/14 07:24:35;;;;;;;9.75;6.25;;;;;;;18.11;46.43;102650.59;4173999;28;20056;-44
2021/12/14 07:26:37;;;;;;;9.65;6.70;;;;;;;18.10;46.24;102656.31;4165512;28;20053;-47
2021/12/14 07:28:44;;;;;;;10.52;7.05;;;;;;;18.08;46.24;102664.88;4171974;28;20099;-44
2021/12/14 07:30:50;;;;;;;10.70;6.95;;;;;;;18.07;46.44;102663.19;4181158;28;20049;-44
2021/12/14 07:33:15;;;;;;;10.57;6.80;;;;;;;18.08;46.55;102672.34;4181426;28;20094;-48
2021/12/14 07:35:24;;;;;;;12.63;6.53;;;;;;;18.09;46.62;102674.03;4182129;28;20028;-43
2021/12/14 07:37:33;;;;;;;10.48;6.55;;;;;;;18.07;46.50;102671.50;4181236;28;20041;-44
2021/12/14 07:39:35;;;;;;;10.30;6.30;;;;;;;18.02;46.10;102663.00;4182445;28;20033;-45
2021/12/14 07:41:40;;;;;;;8.88;6.28;;;;;;;18.04;46.37;102674.69;4166287;28;20111;-45
2021/12/14 07:43:43;;;;;;;;;;;;;;;18.03;46.23;102675.75;4166051;28;20033;-44
2021/12/14 07:45:46;;;;;;;11.65;7.00;;;;;;;18.10;46.09;102682.16;4164725;28;19975;-43
2021/12/14 07:47:52;;;;;;;10.65;6.90;;;;;;;18.08;46.20;102677.88;4165057;28;20378;-45
2021/12/14 07:49:57;;;;;;;9.77;6.32;;;;;;;18.05;46.59;102681.91;4165545;28;20060;-45
2021/12/14 07:52:02;;;;;;;9.63;5.97;;;;;;;18.05;46.41;102679.16;4165725;28;20519;-44
2021/12/14 07:54:14;;;;;;;9.27;6.45;;;;;;;18.04;46.07;102683.00;4165563;28;20432;-43
2021/12/14 07:56:27;;;;;;;9.65;6.03;;;;;;;17.79;46.33;102641.34;4164606;28;20049;-44
2021/12/14 07:58:35;;;;;;;9.80;6.55;;;;;;;18.03;46.26;102692.38;4163482;28;20049;-46
2021/12/14 08:00:40;;;;;;;8.80;6.05;;;;;;;17.97;46.12;102682.19;4164623;28;20037;-45
2021/12/14 08:02:45;;;;;;;;;;;;;;;18.00;46.33;102681.72;4164979;28;20366;-43
2021/12/14 08:04:52;;;;;;;9.77;5.63;;;;;;;18.05;46.37;102687.47;4164926;28;19921;-44
2021/12/14 08:06:56;;;;;;;8.05;5.32;;;;;;;18.04;45.93;102683.00;4164075;28;20227;-47
2021/12/14 08:08:57;;;;;;;10.55;6.07;;;;;;;18.01;46.10;102689.84;4165227;28;20048;-44
2021/12/14 08:13:25;;;;;;;9.30;5.88;;;;;;;17.94;45.98;102675.16;4165059;28;20095;-44
2021/12/14 08:15:31;;;;;;;8.52;5.97;;;;;;;18.00;46.10;102687.28;4165041;28;20096;-46
2021/12/14 08:17:36;;;;;;;7.97;5.50;;;;;;;18.00;46.29;102690.03;4174325;28;20107;-45
2021/12/14 08:19:41;;;;;;;9.07;6.00;;;;;;;17.99;46.28;102688.34;4181365;28;20097;-44
2021/12/14 08:21:47;;;;;;;9.05;5.82;;;;;;;17.92;46.14;102680.06;4181296;28;20534;-45
2021/12/14 08:24:04;;;;;;;9.15;6.47;;;;;;;17.97;46.19;102688.59;4181245;28;20025;-44
2021/12/14 08:26:19;;;;;;;9.57;6.07;;;;;;;17.92;46.28;102691.16;4175209;28;20474;-45
2021/12/14 08:28:21;;;;;;;9.13;5.43;;;;;;;17.95;46.46;102699.00;4164191;28;20428;-48
2021/12/14 08:30:22;;;;;;;8.23;5.53;;;;;;;17.94;46.35;102691.78;4165606;28;20089;-45
2021/12/14 08:32:31;;;;;;;9.10;5.80;;;;;;;17.94;46.19;102693.69;4179561;28;20095;-45
2021/12/14 08:34:39;;;;;;;10.68;6.03;;;;;;;17.92;46.44;102693.94;4165416;28;20021;-49
2021/12/14 08:36:47;;;;;;;7.85;5.30;;;;;;;17.92;46.12;102706.94;4178254;28;20091;-46
2021/12/14 08:39:07;;;;;;;8.80;5.47;;;;;;;17.90;46.18;102698.81;4164393;28;20025;-46
2021/12/14 08:41:21;;;;;;;6.88;4.68;;;;;;;17.92;46.16;102702.22;4174582;28;20037;-46
2021/12/14 08:43:34;;;;;;;7.75;5.22;;;;;;;17.93;46.14;102703.09;4165129;28;20076;-43
2021/12/14 08:45:51;;;;;;;8.60;5.68;;;;;;;17.92;46.30;102707.78;4164909;28;20042;-44
2021/12/14 08:48:01;;;;;;;7.95;5.15;;;;;;;17.93;46.36;102719.69;4180622;28;20041;-47
2021/12/14 08:50:12;;;;;;;7.88;5.00;;;;;;;17.91;46.23;102713.50;4181361;28;20025;-46
2021/12/14 08:52:14;;;;;;;8.82;5.50;;;;;;;17.93;46.46;102719.69;4181267;28;20029;-44
2021/12/14 08:54:21;;;;;;;8.05;4.53;;;;;;;17.93;46.34;102714.16;4180487;28;20542;-46
2021/12/14 08:56:27;;;;;;;8.73;5.25;;;;;;;17.92;46.34;102718.84;4179203;28;20033;-45
2021/12/14 08:58:29;;;;;;;7.82;5.20;;;;;;;17.92;46.04;102718.00;4164079;28;20044;-44
2021/12/14 09:00:38;;;;;;;9.43;5.53;;;;;;;17.90;46.01;102720.13;4179489;28;20037;-44
2021/12/14 09:02:41;;;;;;;8.25;5.68;;;;;;;17.90;46.08;102722.91;4176068;28;20042;-44
2021/12/14 09:05:22;;;;;;;6.68;4.70;;;;;;;17.88;46.04;102727.81;4163836;28;20041;-45
2021/12/14 09:07:27;;;;;;;8.48;4.88;;;;;;;17.89;46.19;102726.75;4142493;28;20107;-45
2021/12/14 09:09:29;;;;;;;7.70;5.20;;;;;;;17.88;45.96;102725.03;4162571;28;20064;-43
2021/12/14 09:11:35;;;;;;;7.47;4.55;;;;;;;17.88;45.86;102727.81;4163390;28;20049;-45
2021/12/14 09:13:38;;;;;;;7.30;4.50;;;;;;;17.87;46.03;102739.94;4163903;28;20050;-44
2021/12/14 09:15:49;;;;;;;7.53;4.60;;;;;;;17.85;45.95;102734.63;4174390;28;20090;-44
2021/12/14 09:17:52;;;;;;;7.28;4.85;;;;;;;17.84;46.02;102734.84;4179927;28;20045;-47
2021/12/14 09:20:11;;;;;;;6.85;4.90;;;;;;;17.82;45.80;102734.19;4180651;28;20037;-44
2021/12/14 09:22:23;;;;;;;7.00;4.70;;;;;;;17.83;46.11;102735.94;4180293;28;20124;-44
2021/12/14 09:24:27;;;;;;;6.28;4.30;;;;;;;17.86;46.36;102738.25;4179883;28;20094;-45
2021/12/14 09:26:34;;;;;;;7.55;4.85;;;;;;;17.83;46.09;102731.25;4179871;28;20037;-44
2021/12/14 09:28:35;;;;;;;7.13;4.15;;;;;;;17.84;46.29;102732.09;4179467;28;20044;-43
2021/12/14 09:30:43;;;;;;;7.68;4.60;;;;;;;17.83;46.19;102735.94;4179898;28;20146;-44
2021/12/14 09:32:47;;;;;;;7.05;4.45;;;;;;;17.83;46.05;102744.22;4179539;28;20098;-46
2021/12/14 09:34:49;;;;;;;6.75;4.68;;;;;;;17.80;45.90;102730.81;4180614;28;20476;-45
2021/12/14 09:36:52;;;;;;;6.25;4.40;;;;;;;17.82;45.95;102742.50;4179471;28;20087;-42
2021/12/14 09:39:01;;;;;;;7.00;4.60;;;;;;;17.80;46.27;102737.19;4179705;28;20041;-49
2021/12/14 09:41:07;;;;;;;7.32;4.43;;;;;;;17.82;45.93;102745.28;4180111;28;20041;-46
2021/12/14 09:43:09;;;;;;;;;;;;;;;17.78;46.11;102744.88;4181150;28;20029;-45
2021/12/14 09:45:18;;;;;;;7.30;4.45;;;;;;;17.81;45.76;102733.34;4178507;28;19913;-47
2021/12/14 09:47:31;;;;;;;6.13;3.85;;;;;;;17.83;45.90;102749.78;4179615;28;20033;-46
2021/12/14 09:49:32;;;;;;;7.88;4.40;;;;;;;17.84;46.00;102757.00;4168135;28;20041;-44
2021/12/14 09:51:39;;;;;;;6.28;4.32;;;;;;;17.82;46.22;102756.34;4169284;28;20033;-43
2021/12/14 09:53:49;;;;;;;6.05;4.20;;;;;;;17.80;46.07;102753.81;4179990;28;20117;-45
2021/12/14 09:55:54;;;;;;;5.40;4.22;;;;;;;17.80;45.91;102752.97;4180334;28;20090;-44
2021/12/14 09:58:00;;;;;;;6.13;4.05;;;;;;;17.77;45.92;102752.31;4180150;28;20024;-46
2021/12/14 10:00:11;;;;;;;6.88;4.22;;;;;;;17.75;46.09;102750.84;4174949;28;20038;-43
2021/12/14 10:02:24;;;;;;;6.13;3.83;;;;;;;17.73;46.23;102764.00;4170104;28;20042;-44
2021/12/14 10:04:32;;;;;;;5.05;3.78;;;;;;;17.71;46.15;102758.69;4163934;28;20372;-46
2021/12/14 10:06:35;;;;;;;6.10;4.35;;;;;;;17.77;45.68;102774.47;4173698;28;20488;-43
2021/12/14 10:08:42;;;;;;;6.30;3.92;;;;;;;17.75;45.83;102781.31;4180471;28;20045;-45
2021/12/14 10:10:52;;;;;;;6.07;3.75;;;;;;;17.74;45.96;102777.69;4178494;28;20110;-44
2021/12/14 10:12:56;;;;;;;6.38;3.90;;;;;;;17.73;45.96;102781.53;4175318;28;20029;-44
2021/12/14 10:14:57;;;;;;;7.70;4.20;;;;;;;17.75;45.89;102781.31;4166520;28;20059;-42
2021/12/14 10:17:00;;;;;;;8.20;4.22;;;;;;;17.74;45.94;102782.38;4181165;28;20468;-43
2021/12/14 10:19:08;;;;;;;5.20;3.53;;;;;;;17.73;45.81;102784.28;4182595;28;20033;-44
2021/12/14 10:21:21;;;;;;;5.57;3.33;;;;;;;17.72;45.90;102784.47;4168009;28;20461;-43